Terminal Aerodrome Forecast
Issued by NWS Wilmington, OH

Current Version | Previous Version | Graphics & Text | Print | Product List | Glossary On
Versions: 1 2 3 4 5 6 7 8 9 10 11 12 13 14 15 16 17 18 19 20 21 22
000
FTUS41 KILN 222320
TAFILN
TAF
KILN 222320Z 2300/2324 26007KT P6SM SCT080 SCT200
     FM230300 23005KT P6SM VCTS BKN060CB
      TEMPO 2303/2307 3SM TSRA OVC025CB
     FM230900 24008KT P6SM VCSH BKN050
     FM231800 27009KT P6SM BKN040
     FM232200 28008KT P6SM SCT050=

USA.gov is the U.S. government's official web portal to all federal, state and local government web resources and services.